Time;durP1;ratioP1;P1;durP2;ratioP2;P2;SDS_P1;SDS_P2;PMS_P1;PMS_P2;Temp;Humidity;BMP_temperature;BMP_pressure;BME280_temperature;BME280_humidity;BME280_pressure;Samples;Min_cycle;Max_cycle;Signal;HPM_P1;HPM_P2
2021/04/13 00:02:18;;;;;;;6.33;5.73;;;;;;;;;;5087198;28;20424;-58
2021/04/13 00:04:45;;;;;;;5.93;5.30;;;;;;;;;;5091739;28;20410;-59
2021/04/13 00:07:11;;;;;;;6.40;5.70;;;;;;;;;;5068075;28;20427;-58
2021/04/13 00:09:37;;;;;;;6.27;5.20;;;;;;;;;;5073408;28;20179;-58
2021/04/13 00:12:07;;;;;;;6.47;5.87;;;;;;;;;;5091367;28;20910;-59
2021/04/13 00:14:42;;;;;;;6.83;5.23;;;;;;;;;;5072793;28;20878;-59
2021/04/13 00:17:11;;;;;;;5.50;5.00;;;;;;;;;;5088195;28;20528;-59
2021/04/13 00:19:40;;;;;;;5.93;5.20;;;;;;;;;;5079821;28;20184;-58
2021/04/13 00:22:06;;;;;;;5.93;5.33;;;;;;;;;;5073120;28;20496;-58
2021/04/13 00:24:32;;;;;;;6.00;5.27;;;;;;;;;;5086111;28;20435;-58
2021/04/13 00:27:00;;;;;;;8.80;5.20;;;;;;;;;;5066513;28;20429;-58
2021/04/13 00:29:28;;;;;;;5.70;5.10;;;;;;;;;;5090844;28;20534;-58
2021/04/13 00:31:58;;;;;;;7.20;5.77;;;;;;;;;;5078635;28;20434;-60
2021/04/13 00:34:39;;;;;;;5.73;5.13;;;;;;;;;;5059836;28;20187;-58
2021/04/13 00:37:11;;;;;;;6.03;5.07;;;;;;;;;;5090949;28;20457;-58
2021/04/13 00:39:37;;;;;;;6.17;5.57;;;;;;;;;;5084485;28;20187;-58
2021/04/13 00:42:08;;;;;;;6.53;5.93;;;;;;;;;;5070635;28;20430;-58
2021/04/13 00:44:41;;;;;;;6.10;5.50;;;;;;;;;;5071947;28;20518;-59
2021/04/13 00:47:10;;;;;;;5.67;5.17;;;;;;;;;;5079626;28;20442;-58
2021/04/13 00:49:38;;;;;;;6.10;5.50;;;;;;;;;;5079351;28;20433;-59
2021/04/13 00:52:06;;;;;;;6.83;6.00;;;;;;;;;;5090521;28;21338;-59
2021/04/13 00:54:39;;;;;;;6.17;5.53;;;;;;;;;;5090938;28;20686;-58
2021/04/13 00:57:08;;;;;;;6.67;5.40;;;;;;;;;;5090127;28;20446;-58
2021/04/13 00:59:35;;;;;;;7.67;6.00;;;;;;;;;;5088939;28;20182;-58
2021/04/13 01:02:03;;;;;;;6.03;5.43;;;;;;;;;;5065811;28;20513;-59
2021/04/13 01:04:32;;;;;;;6.73;5.57;;;;;;;;;;5090457;28;20437;-59
2021/04/13 01:06:59;;;;;;;6.87;5.50;;;;;;;;;;5090756;28;20406;-58
2021/04/13 01:09:26;;;;;;;6.33;5.73;;;;;;;;;;5078920;28;20884;-59
2021/04/13 01:11:55;;;;;;;5.87;5.37;;;;;;;;;;5072756;28;20465;-58
2021/04/13 01:14:24;;;;;;;6.43;5.60;;;;;;;;;;5077399;28;20418;-58
2021/04/13 01:16:54;;;;;;;6.07;5.47;;;;;;;;;;5085979;28;20514;-59
2021/04/13 01:19:28;;;;;;;5.67;5.07;;;;;;;;;;5081547;28;20845;-59
2021/04/13 01:22:04;;;;;;;6.10;5.50;;;;;;;;;;5090192;28;20214;-59
2021/04/13 01:24:45;;;;;;;6.43;5.83;;;;;;;;;;5072354;28;20429;-58
2021/04/13 01:27:12;;;;;;;5.57;5.07;;;;;;;;;;5089371;28;20484;-58
2021/04/13 01:29:38;;;;;;;5.67;5.13;;;;;;;;;;5084437;28;20518;-58
2021/04/13 01:32:07;;;;;;;5.90;5.30;;;;;;;;;;5052057;28;20422;-59
2021/04/13 01:34:48;;;;;;;6.10;5.47;;;;;;;;;;5078695;28;20912;-58
2021/04/13 01:42:40;;;;;;;6.03;5.43;;;;;;;;;;5087063;28;20425;-58
2021/04/13 01:45:06;;;;;;;6.20;5.60;;;;;;;;;;5082309;28;20973;-59
2021/04/13 01:47:33;;;;;;;6.33;5.23;;;;;;;;;;5087247;28;20491;-58
2021/04/13 01:50:03;;;;;;;5.87;5.27;;;;;;;;;;5088796;28;20453;-59
2021/04/13 01:52:31;;;;;;;6.43;5.83;;;;;;;;;;5089114;28;20437;-60
2021/04/13 01:54:58;;;;;;;6.77;6.07;;;;;;;;;;5069680;28;20954;-58
2021/04/13 01:57:30;;;;;;;5.63;5.03;;;;;;;;;;5069226;28;20534;-60
2021/04/13 02:00:01;;;;;;;6.77;5.93;;;;;;;;;;5069466;28;20422;-58
2021/04/13 02:02:30;;;;;;;6.27;5.67;;;;;;;;;;5070453;28;20422;-58
2021/04/13 02:05:00;;;;;;;7.40;6.37;;;;;;;;;;5080189;28;20466;-59
2021/04/13 02:07:46;;;;;;;6.53;5.90;;;;;;;;;;5071270;28;20426;-58
2021/04/13 02:10:23;;;;;;;6.00;5.40;;;;;;;;;;5086313;28;20503;-58
2021/04/13 02:12:51;;;;;;;5.90;5.30;;;;;;;;;;5089561;28;20425;-58
2021/04/13 02:15:28;;;;;;;6.90;6.20;;;;;;;;;;5085928;28;20984;-58
2021/04/13 02:17:57;;;;;;;6.03;5.40;;;;;;;;;;5071492;28;20414;-58
2021/04/13 02:20:34;;;;;;;7.27;6.50;;;;;;;;;;5083696;28;20937;-58
2021/04/13 02:23:01;;;;;;;6.80;5.70;;;;;;;;;;5070886;28;20837;-58
2021/04/13 02:25:32;;;;;;;7.33;5.90;;;;;;;;;;5074227;28;20413;-59
2021/04/13 02:27:59;;;;;;;6.47;5.63;;;;;;;;;;5073305;28;20434;-58
2021/04/13 02:30:34;;;;;;;5.73;4.97;;;;;;;;;;5101514;28;20551;-58
2021/04/13 02:33:01;;;;;;;6.77;6.07;;;;;;;;;;5087844;28;20418;-58
2021/04/13 02:35:29;;;;;;;6.23;5.63;;;;;;;;;;5088029;28;20406;-60
2021/04/13 02:37:58;;;;;;;6.00;5.40;;;;;;;;;;5078060;28;20476;-59
2021/04/13 02:40:26;;;;;;;6.17;5.57;;;;;;;;;;5087833;28;20506;-58
2021/04/13 02:42:55;;;;;;;6.23;5.60;;;;;;;;;;5083521;28;20421;-58
2021/04/13 02:45:30;;;;;;;6.50;5.90;;;;;;;;;;5092933;28;20402;-58
2021/04/13 02:48:06;;;;;;;6.00;4.90;;;;;;;;;;5092262;28;20433;-58
2021/04/13 02:50:34;;;;;;;6.57;5.97;;;;;;;;;;5092408;28;20944;-58
2021/04/13 02:53:01;;;;;;;7.60;5.53;;;;;;;;;;5074016;28;20446;-60
2021/04/13 02:55:29;;;;;;;5.87;5.27;;;;;;;;;;5088081;28;20406;-58
2021/04/13 02:57:56;;;;;;;6.27;5.67;;;;;;;;;;5073803;28;20429;-59
2021/04/13 03:00:31;;;;;;;8.07;5.53;;;;;;;;;;5070160;28;20498;-58
2021/04/13 03:02:58;;;;;;;6.17;5.20;;;;;;;;;;5068934;28;20428;-59
2021/04/13 03:05:25;;;;;;;7.13;5.43;;;;;;;;;;5068618;28;20414;-59
2021/04/13 03:07:52;;;;;;;6.50;5.30;;;;;;;;;;5082375;28;20184;-58
2021/04/13 03:10:20;;;;;;;6.40;5.80;;;;;;;;;;5086132;28;20418;-58
2021/04/13 03:12:51;;;;;;;5.60;5.10;;;;;;;;;;5074228;28;20512;-59
2021/04/13 03:15:18;;;;;;;6.13;5.53;;;;;;;;;;5086852;28;20410;-58
2021/04/13 03:17:46;;;;;;;6.97;6.27;;;;;;;;;;5075094;28;20462;-58
2021/04/13 03:20:13;;;;;;;6.30;5.70;;;;;;;;;;5084171;28;20851;-58
2021/04/13 03:22:40;;;;;;;6.70;6.00;;;;;;;;;;5089944;28;20422;-58
2021/04/13 03:25:08;;;;;;;7.83;6.13;;;;;;;;;;5073695;28;20441;-59
2021/04/13 03:27:35;;;;;;;8.27;5.67;;;;;;;;;;5071311;28;20478;-58
2021/04/13 03:30:06;;;;;;;7.67;5.93;;;;;;;;;;5091849;28;20450;-58
2021/04/13 03:32:34;;;;;;;6.83;5.80;;;;;;;;;;5089105;28;20429;-58
2021/04/13 03:35:00;;;;;;;6.00;5.40;;;;;;;;;;5071566;28;20453;-58
2021/04/13 03:37:27;;;;;;;6.60;5.60;;;;;;;;;;5091198;28;20470;-58
2021/04/13 03:39:53;;;;;;;7.17;6.47;;;;;;;;;;5068967;28;20465;-59
2021/04/13 03:42:25;;;;;;;5.70;5.07;;;;;;;;;;5085325;28;20458;-58
2021/04/13 03:44:52;;;;;;;6.17;5.57;;;;;;;;;;5091802;28;20413;-58
2021/04/13 03:47:20;;;;;;;7.07;5.73;;;;;;;;;;5091750;28;20429;-58
2021/04/13 03:49:46;;;;;;;6.50;5.80;;;;;;;;;;5090897;28;20770;-59
2021/04/13 03:52:15;;;;;;;7.77;5.80;;;;;;;;;;5056214;28;20454;-58
2021/04/13 03:54:41;;;;;;;6.97;6.17;;;;;;;;;;5071061;28;20513;-59
2021/04/13 03:57:08;;;;;;;7.07;5.77;;;;;;;;;;5088808;28;20544;-59
2021/04/13 03:59:36;;;;;;;6.80;5.80;;;;;;;;;;5087595;28;20422;-58
2021/04/13 04:02:02;;;;;;;7.47;5.83;;;;;;;;;;5090306;28;20499;-58
2021/04/13 04:04:32;;;;;;;7.30;5.53;;;;;;;;;;5089877;28;20437;-58
2021/04/13 04:07:04;;;;;;;7.47;5.60;;;;;;;;;;5081457;28;20430;-58
2021/04/13 04:09:31;;;;;;;6.40;5.60;;;;;;;;;;5078270;28;20410;-58
2021/04/13 04:11:58;;;;;;;7.60;5.77;;;;;;;;;;5082641;28;20763;-58
2021/04/13 04:14:26;;;;;;;5.90;5.37;;;;;;;;;;5090426;28;20475;-58
2021/04/13 04:17:01;;;;;;;6.27;5.47;;;;;;;;;;5081041;28;20982;-59
2021/04/13 04:19:29;;;;;;;6.70;6.10;;;;;;;;;;5083984;28;20911;-58
2021/04/13 04:22:06;;;;;;;7.90;6.03;;;;;;;;;;5080479;28;20414;-58
2021/04/13 04:24:37;;;;;;;6.87;5.37;;;;;;;;;;5079012;28;20920;-58
2021/04/13 04:27:19;;;;;;;6.77;5.83;;;;;;;;;;5066784;28;20425;-58
2021/04/13 04:30:04;;;;;;;5.47;4.97;;;;;;;;;;5086761;28;20918;-59
2021/04/13 04:32:30;;;;;;;7.90;5.93;;;;;;;;;;5089431;28;20937;-58
2021/04/13 04:35:05;;;;;;;6.40;5.73;;;;;;;;;;5066394;28;20418;-59
2021/04/13 04:37:33;;;;;;;7.33;5.70;;;;;;;;;;5059486;28;20804;-58
2021/04/13 04:40:18;;;;;;;6.43;5.63;;;;;;;;;;5081469;28;20415;-58
2021/04/13 04:43:04;;;;;;;6.40;5.80;;;;;;;;;;5064171;28;20496;-59
2021/04/13 04:45:36;;;;;;;5.93;5.33;;;;;;;;;;5090162;28;20429;-58
2021/04/13 04:48:38;;;;;;;5.87;5.27;;;;;;;;;;5075842;28;20414;-58
2021/04/13 04:51:14;;;;;;;8.20;6.13;;;;;;;;;;4987699;28;20461;-58
2021/04/13 04:53:41;;;;;;;7.47;6.00;;;;;;;;;;5065597;28;20429;-59
2021/04/13 04:56:08;;;;;;;6.07;5.47;;;;;;;;;;5068672;28;20527;-59
2021/04/13 04:58:34;;;;;;;6.00;5.20;;;;;;;;;;5078284;28;20413;-58
2021/04/13 05:01:00;;;;;;;6.70;6.00;;;;;;;;;;5083337;28;20516;-58
2021/04/13 05:03:27;;;;;;;5.70;5.10;;;;;;;;;;5075065;28;20509;-59
2021/04/13 05:05:54;;;;;;;5.70;5.10;;;;;;;;;;5085314;28;20440;-58
2021/04/13 05:08:20;;;;;;;6.13;5.40;;;;;;;;;;5059647;28;20463;-58
2021/04/13 05:10:47;;;;;;;6.93;6.23;;;;;;;;;;5078121;28;20415;-58
2021/04/13 05:13:13;;;;;;;6.27;5.67;;;;;;;;;;5076070;28;20432;-58
2021/04/13 05:15:39;;;;;;;6.60;6.00;;;;;;;;;;5065490;28;20850;-58
2021/04/13 05:18:05;;;;;;;8.20;6.10;;;;;;;;;;5060931;28;20410;-58
2021/04/13 05:20:31;;;;;;;9.13;5.80;;;;;;;;;;5071279;28;20426;-59
2021/04/13 05:22:57;;;;;;;7.70;6.23;;;;;;;;;;5078293;28;20478;-58
2021/04/13 05:25:24;;;;;;;7.93;6.17;;;;;;;;;;5062793;28;20430;-59
2021/04/13 05:27:50;;;;;;;5.90;5.40;;;;;;;;;;5076208;28;20474;-58
2021/04/13 05:30:17;;;;;;;5.57;5.07;;;;;;;;;;5064769;28;20520;-59
2021/04/13 05:32:43;;;;;;;8.07;6.30;;;;;;;;;;5080077;28;20413;-58
2021/04/13 05:35:10;;;;;;;6.83;6.10;;;;;;;;;;5063641;28;20533;-58
2021/04/13 05:37:36;;;;;;;6.47;5.07;;;;;;;;;;5064111;28;20976;-60
2021/04/13 05:40:04;;;;;;;7.50;5.60;;;;;;;;;;5087050;28;20896;-58
2021/04/13 05:42:31;;;;;;;7.23;5.60;;;;;;;;;;5086693;28;20521;-60
2021/04/13 05:44:58;;;;;;;8.00;6.10;;;;;;;;;;5085396;28;20520;-58
2021/04/13 05:47:29;;;;;;;8.23;5.67;;;;;;;;;;5084361;28;20445;-58
2021/04/13 05:49:55;;;;;;;6.13;5.33;;;;;;;;;;5081547;28;20450;-58
2021/04/13 05:52:21;;;;;;;8.13;5.90;;;;;;;;;;5080710;28;20425;-58
2021/04/13 05:54:47;;;;;;;6.57;5.83;;;;;;;;;;5066112;28;20638;-59
2021/04/13 05:57:15;;;;;;;6.80;5.80;;;;;;;;;;5064716;28;20465;-58
2021/04/13 05:59:42;;;;;;;6.07;5.47;;;;;;;;;;5086214;28;20434;-60
2021/04/13 06:02:11;;;;;;;6.63;5.67;;;;;;;;;;5092282;28;20756;-58
2021/04/13 06:04:37;;;;;;;6.20;4.83;;;;;;;;;;5084822;28;20422;-61
2021/04/13 06:07:03;;;;;;;6.57;5.97;;;;;;;;;;5088993;28;20422;-58
2021/04/13 06:09:29;;;;;;;6.87;5.13;;;;;;;;;;5093035;28;20467;-58
2021/04/13 06:11:56;;;;;;;6.73;5.53;;;;;;;;;;5071307;28;20435;-58
2021/04/13 06:14:23;;;;;;;7.67;6.03;;;;;;;;;;5087647;28;20959;-59
2021/04/13 06:16:50;;;;;;;6.30;5.70;;;;;;;;;;5057519;28;21000;-58
2021/04/13 06:19:16;;;;;;;8.33;5.97;;;;;;;;;;5066493;28;22752;-58
2021/04/13 06:21:42;;;;;;;8.07;6.80;;;;;;;;;;5064660;28;20483;-59
2021/04/13 06:24:10;;;;;;;8.93;5.50;;;;;;;;;;5071432;28;20475;-58
2021/04/13 06:26:36;;;;;;;7.23;5.37;;;;;;;;;;5087861;28;20450;-58
2021/04/13 06:29:03;;;;;;;6.67;5.93;;;;;;;;;;5068901;28;20481;-60
2021/04/13 06:31:29;;;;;;;6.47;5.80;;;;;;;;;;5088700;28;20449;-59
2021/04/13 06:33:55;;;;;;;6.90;6.23;;;;;;;;;;5064724;28;20433;-58
2021/04/13 06:36:24;;;;;;;6.70;5.50;;;;;;;;;;5086335;28;20518;-58
2021/04/13 06:38:51;;;;;;;10.33;6.57;;;;;;;;;;5086337;28;20924;-60
2021/04/13 06:41:30;;;;;;;6.87;6.23;;;;;;;;;;5064480;28;20433;-58
2021/04/13 06:44:14;;;;;;;7.30;6.53;;;;;;;;;;5086369;28;20429;-58
2021/04/13 06:46:40;;;;;;;6.27;5.67;;;;;;;;;;5084535;28;20440;-58
2021/04/13 06:49:31;;;;;;;9.07;5.93;;;;;;;;;;5068118;28;20453;-58
2021/04/13 06:52:02;;;;;;;6.67;5.80;;;;;;;;;;5087861;28;20199;-59
2021/04/13 06:54:36;;;;;;;7.00;6.23;;;;;;;;;;5087260;28;20430;-59
2021/04/13 06:57:21;;;;;;;7.07;6.00;;;;;;;;;;5068284;28;20463;-61
2021/04/13 07:00:04;;;;;;;5.40;4.87;;;;;;;;;;5085030;28;20437;-61
2021/04/13 07:02:36;;;;;;;7.53;6.30;;;;;;;;;;5086739;28;20422;-58
2021/04/13 07:05:22;;;;;;;5.77;5.20;;;;;;;;;;5086735;28;20479;-58
2021/04/13 07:07:52;;;;;;;7.23;5.80;;;;;;;;;;5082012;28;20414;-58
2021/04/13 07:10:27;;;;;;;9.13;6.37;;;;;;;;;;5096257;28;20460;-59
2021/04/13 07:13:01;;;;;;;6.57;5.83;;;;;;;;;;5093313;28;20405;-60
2021/04/13 07:15:27;;;;;;;7.87;6.30;;;;;;;;;;5065658;28;20422;-60
2021/04/13 07:17:57;;;;;;;6.67;6.00;;;;;;;;;;5066859;28;20425;-59
2021/04/13 07:20:37;;;;;;;8.27;6.47;;;;;;;;;;5056586;28;20923;-58
2021/04/13 07:23:07;;;;;;;6.80;5.90;;;;;;;;;;5095588;28;20402;-59
2021/04/13 07:25:34;;;;;;;7.80;6.10;;;;;;;;;;5092020;28;20766;-60
2021/04/13 07:28:03;;;;;;;7.43;5.73;;;;;;;;;;5065427;28;20445;-58
2021/04/13 07:30:34;;;;;;;7.43;6.13;;;;;;;;;;5084947;28;20461;-58
2021/04/13 07:33:01;;;;;;;7.60;6.37;;;;;;;;;;5072678;28;20477;-58
2021/04/13 07:35:29;;;;;;;6.93;6.10;;;;;;;;;;5089886;28;20418;-58
2021/04/13 07:37:56;;;;;;;8.83;6.27;;;;;;;;;;5088601;28;20441;-59
2021/04/13 07:40:28;;;;;;;9.53;6.17;;;;;;;;;;5084553;28;20442;-58
2021/04/13 07:43:20;;;;;;;10.20;7.63;;;;;;;;;;5081261;28;20821;-59
2021/04/13 07:45:52;;;;;;;7.93;5.97;;;;;;;;;;5064532;28;20445;-59
2021/04/13 07:48:41;;;;;;;6.93;6.23;;;;;;;;;;5065052;28;20562;-59
2021/04/13 07:51:26;;;;;;;7.43;6.07;;;;;;;;;;5076415;28;20426;-59
2021/04/13 07:54:10;;;;;;;6.83;6.13;;;;;;;;;;5063825;28;20505;-58
2021/04/13 07:56:45;;;;;;;8.80;6.00;;;;;;;;;;5083037;28;20465;-59
2021/04/13 07:59:19;;;;;;;6.27;5.53;;;;;;;;;;5084326;28;20921;-58
2021/04/13 08:01:46;;;;;;;8.13;6.70;;;;;;;;;;5085988;28;20501;-58
2021/04/13 08:04:16;;;;;;;8.63;6.00;;;;;;;;;;5089110;28;20406;-58
2021/04/13 08:06:47;;;;;;;10.00;5.73;;;;;;;;;;5087711;28;20414;-59
2021/04/13 08:09:32;;;;;;;6.10;5.50;;;;;;;;;;5060818;28;20436;-61
2021/04/13 08:12:12;;;;;;;8.30;6.23;;;;;;;;;;5087198;28;20912;-59
2021/04/13 08:14:41;;;;;;;9.17;6.13;;;;;;;;;;5085486;28;20576;-59
2021/04/13 08:17:16;;;;;;;6.33;5.17;;;;;;;;;;5087316;28;20489;-58
2021/04/13 08:19:43;;;;;;;8.27;5.17;;;;;;;;;;5091008;28;20406;-58
2021/04/13 08:22:11;;;;;;;7.13;5.50;;;;;;;;;;5087130;28;20422;-58
2021/04/13 08:24:39;;;;;;;6.27;5.30;;;;;;;;;;5064581;28;20425;-59
2021/04/13 08:27:25;;;;;;;7.93;5.33;;;;;;;;;;5080313;28;20449;-59
2021/04/13 08:29:51;;;;;;;7.60;5.40;;;;;;;;;;5065938;28;20515;-59
2021/04/13 08:32:57;;;;;;;9.23;5.67;;;;;;;;;;5079715;28;20430;-59
2021/04/13 08:35:32;;;;;;;6.93;5.03;;;;;;;;;;5077105;28;20465;-58
2021/04/13 08:38:17;;;;;;;7.77;5.13;;;;;;;;;;5080853;28;20433;-59
2021/04/13 08:40:57;;;;;;;6.20;4.37;;;;;;;;;;5078915;28;20883;-58
2021/04/13 08:43:48;;;;;;;7.20;4.43;;;;;;;;;;5081126;28;20444;-60
2021/04/13 08:46:46;;;;;;;6.33;4.23;;;;;;;;;;5050779;28;20422;-60
2021/04/13 08:49:14;;;;;;;7.70;4.70;;;;;;;;;;5042669;28;20472;-59
2021/04/13 08:51:42;;;;;;;5.13;3.30;;;;;;;;;;5085494;28;20434;-59
2021/04/13 08:54:21;;;;;;;6.77;3.60;;;;;;;;;;5088112;28;20528;-60
2021/04/13 08:57:25;;;;;;;5.43;3.03;;;;;;;;;;5087429;28;20457;-59
2021/04/13 08:59:52;;;;;;;4.17;2.60;;;;;;;;;;5048648;28;20802;-59
2021/04/13 09:02:38;;;;;;;4.33;2.80;;;;;;;;;;5085840;28;20430;-60
2021/04/13 09:05:35;;;;;;;4.07;2.83;;;;;;;;;;5080805;28;20530;-59
2021/04/13 09:08:04;;;;;;;5.57;2.90;;;;;;;;;;5057780;28;21012;-59
2021/04/13 09:10:41;;;;;;;3.83;2.47;;;;;;;;;;5085922;28;20576;-59
2021/04/13 09:13:27;;;;;;;4.40;2.63;;;;;;;;;;5086497;28;20417;-59
2021/04/13 09:15:57;;;;;;;6.20;2.57;;;;;;;;;;5079590;28;20465;-59
2021/04/13 09:18:31;;;;;;;5.43;1.83;;;;;;;;;;5054939;28;20433;-61
2021/04/13 09:21:00;;;;;;;5.30;2.60;;;;;;;;;;5078353;28;20822;-58
2021/04/13 09:23:28;;;;;;;3.77;2.07;;;;;;;;;;5085916;28;20410;-59
2021/04/13 09:26:09;;;;;;;3.40;2.10;;;;;;;;;;5083814;28;20441;-59
2021/04/13 09:28:52;;;;;;;4.80;1.93;;;;;;;;;;5084220;28;20477;-59
2021/04/13 09:31:29;;;;;;;3.97;1.87;;;;;;;;;;5081092;28;20447;-60
2021/04/13 09:34:08;;;;;;;3.27;2.03;;;;;;;;;;5078387;28;21093;-59
2021/04/13 09:36:44;;;;;;;7.13;2.27;;;;;;;;;;5081687;28;21116;-58
2021/04/13 09:39:33;;;;;;;3.10;2.10;;;;;;;;;;5085598;28;20907;-58
2021/04/13 09:42:17;;;;;;;3.60;2.20;;;;;;;;;;5081428;28;20548;-60
2021/04/13 09:45:02;;;;;;;5.63;2.17;;;;;;;;;;5086157;28;20421;-58
2021/04/13 09:47:31;;;;;;;3.50;1.97;;;;;;;;;;5082665;28;20430;-59
2021/04/13 09:50:16;;;;;;;4.67;1.87;;;;;;;;;;5086189;28;20548;-59
2021/04/13 09:52:54;;;;;;;3.20;1.67;;;;;;;;;;5082035;28;20433;-59
2021/04/13 09:55:28;;;;;;;3.83;1.47;;;;;;;;;;5084350;28;20505;-59
2021/04/13 09:58:09;;;;;;;3.70;1.60;;;;;;;;;;5082799;28;20463;-62
2021/04/13 10:00:35;;;;;;;2.63;1.63;;;;;;;;;;5061814;28;20480;-59
2021/04/13 10:03:01;;;;;;;4.97;2.10;;;;;;;;;;5080871;28;20444;-59
2021/04/13 10:05:29;;;;;;;7.80;2.73;;;;;;;;;;5077753;28;20443;-59
2021/04/13 10:07:58;;;;;;;6.70;2.73;;;;;;;;;;5059727;28;20190;-59
2021/04/13 10:10:27;;;;;;;4.47;2.30;;;;;;;;;;5087141;28;20426;-59
2021/04/13 10:13:12;;;;;;;5.00;1.80;;;;;;;;;;5088732;28;20409;-59
2021/04/13 10:15:41;;;;;;;4.33;2.10;;;;;;;;;;5078118;28;20852;-57
2021/04/13 10:18:26;;;;;;;5.47;1.80;;;;;;;;;;5086051;28;20426;-57
2021/04/13 10:20:52;;;;;;;11.77;9.03;;;;;;;;;;5080052;28;20472;-57
2021/04/13 10:23:37;;;;;;;14.13;9.80;;;;;;;;;;5078776;28;20418;-59
2021/04/13 10:26:03;;;;;;;10.83;5.90;;;;;;;;;;5072478;28;20426;-60
2021/04/13 10:28:38;;;;;;;7.10;4.57;;;;;;;;;;5088648;28;20831;-60
2021/04/13 10:31:10;;;;;;;6.07;3.67;;;;;;;;;;5074132;28;20288;-60
2021/04/13 10:33:42;;;;;;;5.33;3.50;;;;;;;;;;5087088;28;20444;-60
2021/04/13 10:36:29;;;;;;;3.33;2.80;;;;;;;;;;5079888;28;20554;-60
2021/04/13 10:39:01;;;;;;;4.80;2.63;;;;;;;;;;5085835;28;20422;-59
2021/04/13 10:41:46;;;;;;;7.73;2.10;;;;;;;;;;5069389;28;20754;-58
2021/04/13 10:44:21;;;;;;;3.30;1.97;;;;;;;;;;5081821;28;20975;-60
2021/04/13 10:47:06;;;;;;;4.60;2.10;;;;;;;;;;5085074;28;20461;-59
2021/04/13 10:49:55;;;;;;;3.07;1.53;;;;;;;;;;5085774;28;20461;-59
2021/04/13 10:52:32;;;;;;;2.93;1.73;;;;;;;;;;5064304;28;20429;-59
2021/04/13 10:55:16;;;;;;;3.77;1.80;;;;;;;;;;5087125;28;20618;-59
2021/04/13 10:57:42;;;;;;;4.57;1.93;;;;;;;;;;5083815;28;20203;-59
2021/04/13 11:00:11;;;;;;;1.87;1.20;;;;;;;;;;5084431;28;20183;-60
2021/04/13 11:02:50;;;;;;;2.67;1.27;;;;;;;;;;5084117;28;20594;-59
2021/04/13 11:05:34;;;;;;;1.90;1.23;;;;;;;;;;5082516;28;20183;-62
2021/04/13 11:08:07;;;;;;;3.07;1.60;;;;;;;;;;5089289;28;20183;-59
2021/04/13 11:10:47;;;;;;;4.10;1.57;;;;;;;;;;5089527;28;20425;-60
2021/04/13 11:13:23;;;;;;;2.20;1.50;;;;;;;;;;5090918;28;20171;-61
2021/04/13 11:15:52;;;;;;;3.20;1.43;;;;;;;;;;5086975;28;20194;-59
2021/04/13 11:18:24;;;;;;;3.27;1.30;;;;;;;;;;5060705;28;20175;-60
2021/04/13 11:20:54;;;;;;;6.67;1.30;;;;;;;;;;5082697;28;20180;-62
2021/04/13 11:23:22;;;;;;;2.77;1.60;;;;;;;;;;5088711;28;20263;-59
2021/04/13 11:26:21;;;;;;;4.13;1.53;;;;;;;;;;5089091;28;20176;-60
2021/04/13 11:29:06;;;;;;;2.83;1.47;;;;;;;;;;5045868;28;20283;-59
2021/04/13 11:31:34;;;;;;;3.63;1.30;;;;;;;;;;5087827;28;20188;-61
2021/04/13 11:34:04;;;;;;;1.37;0.90;;;;;;;;;;5063661;28;20180;-58
2021/04/13 11:36:42;;;;;;;1.60;1.10;;;;;;;;;;5084073;28;20551;-60
2021/04/13 11:39:21;;;;;;;3.40;1.30;;;;;;;;;;5085679;28;20175;-60
2021/04/13 11:42:04;;;;;;;1.53;0.90;;;;;;;;;;5058993;28;20555;-60
2021/04/13 11:44:39;;;;;;;3.40;1.20;;;;;;;;;;5087350;28;20190;-56
2021/04/13 11:47:12;;;;;;;1.20;1.00;;;;;;;;;;5082364;28;20705;-59
2021/04/13 11:50:01;;;;;;;1.70;1.10;;;;;;;;;;5082765;28;20658;-59
2021/04/13 11:52:43;;;;;;;2.37;1.27;;;;;;;;;;5087032;28;20205;-60
2021/04/13 11:55:27;;;;;;;2.07;1.00;;;;;;;;;;5088477;28;20184;-60
2021/04/13 11:58:07;;;;;;;3.70;1.33;;;;;;;;;;5083479;28;20192;-60
2021/04/13 12:00:33;;;;;;;2.77;1.00;;;;;;;;;;5079239;28;20180;-59
2021/04/13 12:03:22;;;;;;;2.00;0.93;;;;;;;;;;5077451;28;20184;-59
2021/04/13 12:05:59;;;;;;;2.20;1.43;;;;;;;;;;5066906;28;20204;-59
2021/04/13 12:08:37;;;;;;;2.33;1.10;;;;;;;;;;5088119;28;20329;-60
2021/04/13 12:11:06;;;;;;;3.03;1.33;;;;;;;;;;5067138;28;20175;-60
2021/04/13 12:13:43;;;;;;;2.43;0.80;;;;;;;;;;5077980;28;20184;-60
2021/04/13 12:16:14;;;;;;;3.33;1.30;;;;;;;;;;5076395;28;20212;-60
2021/04/13 12:18:41;;;;;;;1.97;1.20;;;;;;;;;;5080432;28;20180;-60
2021/04/13 12:21:22;;;;;;;2.33;1.10;;;;;;;;;;5078522;28;20631;-61
2021/04/13 12:23:52;;;;;;;2.47;1.33;;;;;;;;;;5080423;28;20599;-58
2021/04/13 12:26:29;;;;;;;1.37;1.00;;;;;;;;;;5083806;28;20274;-56
2021/04/13 12:28:55;;;;;;;3.60;1.20;;;;;;;;;;5072974;28;20187;-56
2021/04/13 12:31:23;;;;;;;3.27;1.40;;;;;;;;;;5085185;28;20658;-58
2021/04/13 12:33:55;;;;;;;2.60;1.30;;;;;;;;;;5081479;28;20180;-60
2021/04/13 12:36:40;;;;;;;1.80;1.53;;;;;;;;;;5079672;28;20212;-60
2021/04/13 12:39:06;;;;;;;1.70;1.13;;;;;;;;;;5090897;28;20701;-59
2021/04/13 12:41:34;;;;;;;3.13;1.53;;;;;;;;;;5084554;28;20263;-60
2021/04/13 12:44:18;;;;;;;1.83;1.20;;;;;;;;;;5067016;28;20183;-59
2021/04/13 12:46:46;;;;;;;2.13;1.00;;;;;;;;;;5082731;28;20183;-60
2021/04/13 12:49:12;;;;;;;3.73;1.77;;;;;;;;;;5065151;28;20224;-61
2021/04/13 12:51:38;;;;;;;2.70;1.20;;;;;;;;;;5081940;28;20251;-60
2021/04/13 12:54:12;;;;;;;8.30;1.43;;;;;;;;;;5083103;28;20221;-60
2021/04/13 12:56:38;;;;;;;2.20;0.93;;;;;;;;;;5089693;28;20783;-61
2021/04/13 12:59:13;;;;;;;3.50;1.10;;;;;;;;;;5072273;28;20684;-58
2021/04/13 13:01:44;;;;;;;1.83;1.10;;;;;;;;;;5078941;28;20475;-60
2021/04/13 13:04:11;;;;;;;2.33;1.00;;;;;;;;;;5081604;28;20180;-60
2021/04/13 13:06:39;;;;;;;2.03;1.13;;;;;;;;;;5082254;28;20545;-60
2021/04/13 13:09:09;;;;;;;1.20;0.80;;;;;;;;;;5089506;28;20172;-60
2021/04/13 13:11:39;;;;;;;4.60;1.10;;;;;;;;;;5066298;28;20203;-60
2021/04/13 13:14:06;;;;;;;3.53;1.37;;;;;;;;;;5079763;28;20649;-59
2021/04/13 13:16:32;;;;;;;3.00;1.37;;;;;;;;;;5084518;28;20268;-59
2021/04/13 13:18:58;;;;;;;4.93;1.07;;;;;;;;;;5081061;28;20179;-59
2021/04/13 13:21:27;;;;;;;3.90;1.30;;;;;;;;;;5062944;28;20180;-60
2021/04/13 13:23:55;;;;;;;2.97;1.27;;;;;;;;;;5071060;28;20250;-60
2021/04/13 13:26:23;;;;;;;1.00;0.73;;;;;;;;;;5089899;28;20510;-60
2021/04/13 13:28:49;;;;;;;1.73;0.80;;;;;;;;;;5088887;28;20254;-59
2021/04/13 13:31:25;;;;;;;1.30;0.97;;;;;;;;;;5082229;28;20246;-60
2021/04/13 13:34:00;;;;;;;0.90;0.90;;;;;;;;;;5079696;28;20191;-61
2021/04/13 13:36:29;;;;;;;3.20;1.00;;;;;;;;;;5079940;28;20199;-60
2021/04/13 13:38:56;;;;;;;0.63;0.60;;;;;;;;;;5087842;28;20222;-60
2021/04/13 13:41:23;;;;;;;2.27;1.10;;;;;;;;;;5082938;28;20190;-60
2021/04/13 13:43:49;;;;;;;1.00;0.87;;;;;;;;;;5080188;28;20266;-59
2021/04/13 13:46:34;;;;;;;1.27;1.00;;;;;;;;;;5059363;28;20187;-59
2021/04/13 13:49:17;;;;;;;1.17;0.90;;;;;;;;;;5080122;28;20206;-59
2021/04/13 13:51:57;;;;;;;1.40;0.90;;;;;;;;;;5076896;28;20654;-60
2021/04/13 13:54:25;;;;;;;2.27;1.20;;;;;;;;;;5066572;28;20176;-59
2021/04/13 13:56:53;;;;;;;2.50;0.90;;;;;;;;;;5084284;28;20300;-60
2021/04/13 13:59:19;;;;;;;0.90;0.90;;;;;;;;;;5064739;28;20195;-59
2021/04/13 14:01:53;;;;;;;3.23;1.47;;;;;;;;;;5079556;28;20184;-60
2021/04/13 14:04:26;;;;;;;2.65;1.20;;;;;;;;;;5079625;28;20427;-59
2021/04/13 14:06:52;;;;;;;2.23;0.90;;;;;;;;;;5078833;28;20172;-59
2021/04/13 14:09:18;;;;;;;3.00;1.23;;;;;;;;;;5085556;28;20184;-60
2021/04/13 14:11:44;;;;;;;3.60;1.17;;;;;;;;;;5085151;28;20175;-61
2021/04/13 14:14:31;;;;;;;1.17;1.07;;;;;;;;;;5086209;28;20271;-62
2021/04/13 14:16:58;;;;;;;1.40;0.97;;;;;;;;;;5088622;28;20188;-60
2021/04/13 14:19:28;;;;;;;1.70;1.07;;;;;;;;;;5069417;28;20203;-61
2021/04/13 14:21:57;;;;;;;3.57;1.10;;;;;;;;;;5065265;28;20179;-62
2021/04/13 14:24:23;;;;;;;3.23;0.90;;;;;;;;;;5072287;28;20535;-61
2021/04/13 14:26:52;;;;;;;1.27;1.00;;;;;;;;;;5071462;28;20179;-61
2021/04/13 14:29:22;;;;;;;1.23;0.80;;;;;;;;;;5068839;28;20203;-61
2021/04/13 14:31:50;;;;;;;3.43;1.17;;;;;;;;;;5090896;28;20172;-62
2021/04/13 14:34:17;;;;;;;1.30;1.00;;;;;;;;;;5090789;28;20172;-60
2021/04/13 14:36:44;;;;;;;1.63;1.23;;;;;;;;;;5089260;28;20246;-60
2021/04/13 14:39:13;;;;;;;1.87;1.00;;;;;;;;;;5091809;28;20164;-59
2021/04/13 14:41:39;;;;;;;2.83;1.20;;;;;;;;;;5089525;28;20221;-59
2021/04/13 14:44:08;;;;;;;3.50;1.40;;;;;;;;;;5090879;28;20180;-60
2021/04/13 14:46:36;;;;;;;2.97;1.50;;;;;;;;;;5090202;28;20188;-62
2021/04/13 14:49:04;;;;;;;3.03;1.20;;;;;;;;;;5069124;28;20235;-60
2021/04/13 14:51:30;;;;;;;4.33;1.43;;;;;;;;;;5070190;28;20553;-60
2021/04/13 14:53:56;;;;;;;1.73;1.13;;;;;;;;;;5091684;28;20604;-60
2021/04/13 14:56:22;;;;;;;4.03;1.60;;;;;;;;;;5088267;28;20428;-60
2021/04/13 14:58:48;;;;;;;3.87;1.30;;;;;;;;;;5064490;28;20179;-60
2021/04/13 15:01:14;;;;;;;1.90;1.30;;;;;;;;;;5090357;28;20168;-60
2021/04/13 15:03:40;;;;;;;2.10;1.20;;;;;;;;;;5068815;28;20396;-60
2021/04/13 15:06:06;;;;;;;2.67;1.50;;;;;;;;;;5066405;28;20259;-63
2021/04/13 15:08:34;;;;;;;5.00;1.67;;;;;;;;;;5064998;28;20179;-60
2021/04/13 15:11:01;;;;;;;2.77;1.40;;;;;;;;;;5085864;28;20169;-60
2021/04/13 15:13:27;;;;;;;5.57;1.60;;;;;;;;;;5063484;28;20210;-60
2021/04/13 15:15:54;;;;;;;1.57;1.10;;;;;;;;;;5073448;28;20665;-60
2021/04/13 15:18:21;;;;;;;3.10;1.20;;;;;;;;;;5089995;28;20177;-57